createdAt,value
2022-08-16T00:01:14.663Z,1.40
2022-08-16T00:03:42.038Z,0.17
2022-08-16T00:06:10.104Z,0.28
2022-08-16T00:08:55.718Z,0.43
2022-08-16T00:11:22.997Z,0.57
2022-08-16T00:13:53.618Z,0.47
2022-08-16T00:17:01.178Z,0.28
2022-08-16T00:19:10.242Z,0.55
2022-08-16T00:21:40.990Z,0.40
2022-08-16T00:24:12.108Z,0.30
2022-08-16T00:26:43.959Z,0.15
2022-08-16T00:29:12.550Z,0.75
2022-08-16T00:32:00.024Z,1.13
2022-08-16T00:34:44.300Z,0.05
2022-08-16T00:37:16.916Z,0.60
2022-08-16T00:39:45.890Z,0.32
2022-08-16T00:42:30.624Z,0.73
2022-08-16T00:45:09.511Z,0.47
2022-08-16T00:47:38.194Z,0.00
2022-08-16T00:50:20.703Z,0.37
2022-08-16T00:52:50.932Z,0.47
2022-08-16T00:55:20.483Z,0.25
2022-08-16T00:57:59.734Z,0.20
2022-08-16T01:00:28.953Z,1.30
2022-08-16T01:03:00.363Z,0.20
2022-08-16T01:05:27.858Z,0.65
2022-08-16T01:07:58.527Z,0.80
2022-08-16T01:13:38.504Z,0.50
2022-08-16T01:16:10.611Z,0.30
2022-08-16T01:18:58.046Z,0.45
2022-08-16T01:21:44.191Z,0.15
2022-08-16T01:24:52.369Z,0.45
2022-08-16T01:27:04.503Z,0.45
2022-08-16T01:29:57.091Z,0.52
2022-08-16T01:32:33.945Z,1.20
2022-08-16T01:35:05.600Z,1.25
2022-08-16T01:37:44.232Z,0.70
2022-08-16T01:40:22.831Z,0.08
2022-08-16T01:42:54.006Z,0.85
2022-08-16T01:45:23.089Z,0.73
2022-08-16T01:47:51.796Z,0.00
2022-08-16T01:50:42.998Z,0.50
2022-08-16T01:53:08.175Z,0.47
2022-08-16T01:55:56.743Z,0.25
2022-08-16T01:58:24.354Z,0.20
2022-08-16T02:00:51.771Z,0.40
2022-08-16T02:03:19.131Z,0.95
2022-08-16T02:05:52.898Z,0.70
2022-08-16T02:08:33.914Z,0.10
2022-08-16T02:11:04.773Z,0.10
2022-08-16T02:16:00.250Z,0.28
2022-08-16T02:18:31.721Z,0.98
2022-08-16T02:21:00.913Z,0.40
2022-08-16T02:23:29.565Z,0.40
2022-08-16T02:25:59.546Z,0.40
2022-08-16T02:28:27.547Z,0.13
2022-08-16T02:30:55.386Z,1.05
2022-08-16T02:33:24.527Z,0.77
2022-08-16T02:35:58.436Z,0.45
2022-08-16T02:38:31.580Z,0.30
2022-08-16T02:41:00.977Z,0.75
2022-08-16T02:43:33.184Z,0.25
2022-08-16T02:46:02.767Z,0.17
2022-08-16T02:48:36.025Z,0.40
2022-08-16T02:51:11.075Z,0.20
2022-08-16T02:53:43.237Z,0.75
2022-08-16T02:56:15.044Z,0.10
2022-08-16T02:58:44.211Z,0.10
2022-08-16T03:01:25.430Z,0.40
2022-08-16T03:04:39.281Z,0.13
2022-08-16T03:06:56.706Z,0.50
2022-08-16T03:09:46.868Z,0.10
2022-08-16T03:12:19.326Z,0.22
2022-08-16T03:14:48.022Z,0.70
2022-08-16T03:19:52.752Z,0.82
2022-08-16T03:22:30.847Z,0.08
2022-08-16T03:25:02.254Z,0.50
2022-08-16T03:27:32.725Z,0.88
2022-08-16T03:32:43.427Z,0.40
2022-08-16T03:35:11.866Z,1.13
2022-08-16T03:38:02.792Z,0.93
2022-08-16T03:40:33.419Z,0.40
2022-08-16T03:45:48.498Z,0.10
2022-08-16T03:48:19.668Z,0.70
2022-08-16T03:51:00.203Z,0.10
2022-08-16T03:53:37.749Z,0.20
2022-08-16T03:58:48.411Z,0.85
2022-08-16T04:01:18.152Z,0.80
2022-08-16T04:03:45.602Z,0.10
2022-08-16T04:06:13.625Z,0.50
2022-08-16T04:08:43.548Z,0.52
2022-08-16T04:11:16.722Z,0.15
2022-08-16T04:14:01.432Z,0.28
2022-08-16T04:16:35.538Z,0.40
2022-08-16T04:19:20.202Z,0.00
2022-08-16T04:21:50.594Z,0.30
2022-08-16T04:24:28.862Z,0.00
2022-08-16T04:26:57.399Z,0.00
2022-08-16T04:29:25.444Z,0.00
2022-08-16T04:31:56.268Z,0.40
2022-08-16T04:34:29.025Z,0.25
2022-08-16T04:37:01.084Z,0.80
2022-08-16T04:39:37.141Z,0.13
2022-08-16T04:42:18.842Z,0.25
2022-08-16T04:44:55.888Z,0.30
2022-08-16T04:47:31.552Z,0.68
2022-08-16T04:50:00.710Z,0.05
2022-08-16T04:52:34.562Z,0.47
2022-08-16T04:55:15.319Z,1.10
2022-08-16T04:57:44.929Z,0.68
2022-08-16T05:00:32.422Z,0.47
2022-08-16T05:03:15.125Z,0.50
2022-08-16T05:05:59.184Z,0.20
2022-08-16T05:08:32.735Z,0.43
2022-08-16T05:11:08.527Z,0.40
2022-08-16T05:13:41.828Z,0.52
2022-08-16T05:16:19.958Z,0.60
2022-08-16T05:18:50.913Z,1.33
2022-08-16T05:21:20.802Z,0.30
2022-08-16T05:23:58.564Z,1.25
2022-08-16T05:26:30.089Z,0.15
2022-08-16T05:28:57.698Z,0.75
2022-08-16T05:31:29.988Z,1.48
2022-08-16T05:34:03.784Z,0.20
2022-08-16T05:36:37.066Z,0.32
2022-08-16T05:39:07.687Z,1.10
2022-08-16T05:41:44.592Z,0.75
2022-08-16T05:44:22.856Z,0.35
2022-08-16T05:46:53.380Z,0.32
2022-08-16T05:49:23.215Z,0.85
2022-08-16T05:51:56.085Z,2.30
2022-08-16T05:54:25.999Z,0.95
2022-08-16T05:56:57.263Z,1.67
2022-08-16T05:59:26.954Z,0.60
2022-08-16T06:01:55.741Z,0.22
2022-08-16T06:04:35.568Z,0.68
2022-08-16T06:07:07.493Z,0.25
2022-08-16T06:09:44.434Z,0.75
2022-08-16T06:12:27.362Z,0.82
2022-08-16T06:15:01.824Z,0.68
2022-08-16T06:17:34.084Z,0.43
2022-08-16T06:20:11.567Z,1.20
2022-08-16T06:22:40.870Z,1.98
2022-08-16T06:25:13.621Z,0.10
2022-08-16T06:27:57.631Z,0.55
2022-08-16T06:30:29.982Z,1.05
2022-08-16T06:32:57.827Z,0.88
2022-08-16T06:35:25.885Z,0.90
2022-08-16T06:38:32.764Z,0.35
2022-08-16T06:40:57.727Z,0.10
2022-08-16T06:43:29.870Z,1.45
2022-08-16T06:46:05.691Z,1.17
2022-08-16T06:48:34.009Z,0.88
2022-08-16T06:51:04.493Z,0.80
2022-08-16T06:53:35.476Z,1.42
2022-08-16T06:56:05.845Z,0.75
2022-08-16T06:58:56.182Z,0.63
2022-08-16T07:01:43.051Z,0.38
2022-08-16T07:04:33.285Z,0.95
2022-08-16T07:07:10.259Z,0.88
2022-08-16T07:09:39.426Z,2.55
2022-08-16T07:12:07.871Z,1.15
2022-08-16T07:14:40.134Z,1.23
2022-08-16T07:17:12.719Z,1.20
2022-08-16T07:20:04.152Z,1.83
2022-08-16T07:22:52.675Z,0.77
2022-08-16T07:25:40.211Z,0.20
2022-08-16T07:28:12.160Z,1.33
2022-08-16T07:30:48.886Z,0.80
2022-08-16T07:33:53.600Z,0.43
2022-08-16T07:36:33.685Z,0.50
2022-08-16T07:39:02.119Z,0.05
2022-08-16T07:41:36.193Z,1.23
2022-08-16T07:44:16.755Z,0.50
2022-08-16T07:46:45.818Z,1.30
2022-08-16T07:49:19.211Z,1.02
2022-08-16T07:51:47.195Z,0.50
2022-08-16T07:54:20.832Z,1.10
2022-08-16T07:56:54.774Z,0.98
2022-08-16T07:59:26.004Z,0.83
2022-08-16T08:02:12.260Z,0.60
2022-08-16T08:07:09.008Z,0.75
2022-08-16T08:09:43.581Z,1.02
2022-08-16T08:12:31.262Z,1.27
2022-08-16T08:14:59.362Z,1.00
2022-08-16T08:17:42.903Z,0.80
2022-08-16T08:20:20.732Z,0.93
2022-08-16T08:23:00.058Z,0.60
2022-08-16T08:25:54.101Z,2.03
2022-08-16T08:28:18.713Z,0.68
2022-08-16T08:31:01.573Z,1.15
2022-08-16T08:33:34.627Z,1.58
2022-08-16T08:36:06.969Z,0.80
2022-08-16T08:38:45.198Z,1.02
2022-08-16T08:41:20.939Z,3.03
2022-08-16T08:43:55.534Z,0.95
2022-08-16T08:46:23.597Z,0.88
2022-08-16T08:48:59.445Z,0.43
2022-08-16T08:51:36.926Z,1.25
2022-08-16T08:54:09.509Z,1.48
2022-08-16T08:56:45.942Z,1.00
2022-08-16T08:59:26.161Z,1.23
2022-08-16T09:01:56.343Z,1.25
2022-08-16T09:04:27.521Z,1.00
2022-08-16T09:06:56.055Z,0.45
2022-08-16T09:09:33.690Z,1.52
2022-08-16T09:12:06.225Z,2.60
2022-08-16T09:14:49.347Z,1.30
2022-08-16T09:17:45.509Z,0.60
2022-08-16T09:20:10.436Z,2.22
2022-08-16T09:22:40.570Z,1.48
2022-08-16T09:25:11.570Z,0.40
2022-08-16T09:27:57.311Z,0.88
2022-08-16T09:30:34.152Z,0.82
2022-08-16T09:33:06.576Z,1.30
2022-08-16T09:35:37.542Z,0.17
2022-08-16T09:38:08.714Z,1.08
2022-08-16T09:40:47.902Z,1.10
2022-08-16T09:47:56.575Z,1.33
2022-08-16T09:50:36.889Z,1.00
2022-08-16T09:53:15.494Z,0.17
2022-08-16T09:55:49.074Z,0.95
2022-08-16T09:58:39.030Z,0.52
2022-08-16T10:01:16.611Z,0.55
2022-08-16T10:04:30.477Z,0.10
2022-08-16T10:07:16.451Z,0.40
2022-08-16T10:09:56.502Z,0.10
2022-08-16T10:15:44.633Z,0.77
2022-08-16T10:19:00.233Z,0.65
2022-08-16T10:21:04.073Z,0.50
2022-08-16T10:23:31.404Z,0.38
2022-08-16T10:27:19.944Z,0.45
2022-08-16T10:28:47.336Z,0.30
2022-08-16T10:31:44.341Z,0.40
2022-08-16T10:34:05.253Z,1.08
2022-08-16T10:36:54.281Z,0.55
2022-08-16T10:39:21.827Z,0.97
2022-08-16T10:44:19.302Z,0.75
2022-08-16T10:46:47.058Z,0.45
2022-08-16T10:49:16.848Z,0.35
2022-08-16T10:52:02.618Z,0.85
2022-08-16T10:54:31.318Z,0.63
2022-08-16T10:56:59.428Z,0.50
2022-08-16T10:59:39.222Z,1.27
2022-08-16T11:02:59.802Z,0.50
2022-08-16T11:05:06.747Z,0.40
2022-08-16T11:07:43.633Z,0.47
2022-08-16T11:10:21.218Z,0.45
2022-08-16T11:13:21.044Z,0.77
2022-08-16T11:15:55.149Z,0.77
2022-08-16T11:19:02.875Z,0.15
2022-08-16T11:21:28.828Z,0.38
2022-08-16T11:23:58.906Z,0.28
2022-08-16T11:26:27.366Z,1.27
2022-08-16T11:29:13.141Z,0.20
2022-08-16T11:31:45.569Z,0.57
2022-08-16T11:36:59.334Z,0.35
2022-08-16T11:39:28.994Z,0.77
2022-08-16T11:41:57.239Z,0.70
2022-08-16T11:44:52.126Z,0.70
2022-08-16T11:47:12.623Z,0.30
2022-08-16T11:49:39.940Z,0.52
2022-08-16T11:52:07.501Z,0.20
2022-08-16T11:54:36.756Z,0.75
2022-08-16T11:59:39.917Z,2.95
2022-08-16T12:02:32.458Z,1.13
2022-08-16T12:04:55.939Z,0.10
2022-08-16T12:07:23.671Z,0.32
2022-08-16T12:09:53.228Z,0.52
2022-08-16T12:12:21.111Z,0.80
2022-08-16T12:14:59.247Z,0.45
2022-08-16T12:17:29.179Z,0.68
2022-08-16T12:20:00.222Z,0.45
2022-08-16T12:22:27.857Z,0.15
2022-08-16T12:24:55.624Z,0.50
2022-08-16T12:27:23.928Z,0.43
2022-08-16T12:29:58.315Z,0.17
2022-08-16T12:32:38.109Z,0.60
2022-08-16T12:35:09.691Z,0.32
2022-08-16T12:37:37.286Z,0.35
2022-08-16T12:40:07.587Z,0.43
2022-08-16T12:42:53.006Z,0.25
2022-08-16T12:45:21.208Z,1.17
2022-08-16T12:48:33.250Z,0.10
2022-08-16T12:50:54.655Z,0.60
2022-08-16T12:55:51.798Z,0.73
2022-08-16T12:58:49.227Z,0.50
2022-08-16T13:01:07.702Z,0.30
2022-08-16T13:03:40.550Z,0.75
2022-08-16T13:06:08.664Z,0.55
2022-08-16T13:08:36.352Z,0.82
2022-08-16T13:11:04.236Z,0.63
2022-08-16T13:13:34.062Z,0.15
2022-08-16T13:16:07.344Z,1.23
2022-08-16T13:18:43.105Z,0.80
2022-08-16T13:21:10.487Z,0.00
2022-08-16T13:23:43.736Z,0.22
2022-08-16T13:26:12.707Z,0.35
2022-08-16T13:28:47.942Z,0.10
2022-08-16T13:31:16.855Z,0.25
2022-08-16T13:33:44.565Z,0.38
2022-08-16T13:36:21.155Z,0.20
2022-08-16T13:39:00.056Z,0.00
2022-08-16T13:41:30.174Z,0.47
2022-08-16T13:44:04.159Z,0.85
2022-08-16T13:46:36.783Z,0.70
2022-08-16T13:49:04.673Z,0.20
2022-08-16T13:51:32.906Z,0.35
2022-08-16T13:54:03.834Z,0.28
2022-08-16T13:56:37.277Z,0.57
2022-08-16T13:59:06.491Z,0.43
2022-08-16T14:01:47.433Z,0.28
2022-08-16T14:04:26.665Z,0.25
2022-08-16T14:06:54.987Z,0.17
2022-08-16T14:09:23.795Z,0.28
2022-08-16T14:11:53.431Z,0.43
2022-08-16T14:14:28.566Z,0.55
2022-08-16T14:17:00.345Z,0.20
2022-08-16T14:19:29.538Z,0.22
2022-08-16T14:22:14.640Z,0.03
2022-08-16T14:24:47.102Z,0.40
2022-08-16T14:27:24.381Z,0.10
2022-08-16T14:29:52.337Z,0.20
2022-08-16T14:32:27.034Z,0.70
2022-08-16T14:35:02.315Z,0.28
2022-08-16T14:37:31.812Z,1.10
2022-08-16T14:39:59.953Z,0.90
2022-08-16T14:42:29.051Z,0.80
2022-08-16T14:44:57.397Z,0.10
2022-08-16T14:47:34.148Z,0.30
2022-08-16T14:50:12.961Z,0.25
2022-08-16T14:53:07.747Z,0.55
2022-08-16T14:55:41.405Z,0.35
2022-08-16T14:58:19.269Z,0.50
2022-08-16T15:00:49.969Z,0.22
2022-08-16T15:03:18.608Z,0.22
2022-08-16T15:05:48.632Z,0.40
2022-08-16T15:08:17.801Z,0.32
2022-08-16T15:10:47.913Z,0.38
2022-08-16T15:13:16.360Z,0.20
2022-08-16T15:15:43.996Z,0.10
2022-08-16T15:18:13.820Z,0.00
2022-08-16T15:20:53.019Z,0.77
2022-08-16T15:23:21.426Z,0.50
2022-08-16T15:25:53.352Z,1.38
2022-08-16T15:28:31.510Z,0.52
2022-08-16T15:31:03.251Z,0.52
2022-08-16T15:33:32.589Z,0.30
2022-08-16T15:36:00.442Z,0.55
2022-08-16T15:38:57.735Z,1.00
2022-08-16T15:41:31.481Z,0.20
2022-08-16T15:44:05.484Z,1.02
2022-08-16T15:46:54.824Z,0.73
2022-08-16T15:49:37.613Z,0.10
2022-08-16T15:52:18.304Z,0.25
2022-08-16T15:54:52.984Z,0.82
2022-08-16T15:57:22.452Z,0.35
2022-08-16T15:59:52.459Z,0.32
2022-08-16T16:02:30.703Z,0.57
2022-08-16T16:05:04.437Z,0.95
2022-08-16T16:07:33.769Z,1.10
2022-08-16T16:10:05.838Z,2.28
2022-08-16T16:12:54.521Z,2.20
2022-08-16T16:15:24.432Z,0.85
2022-08-16T16:17:52.848Z,0.60
2022-08-16T16:20:27.021Z,0.50
2022-08-16T16:22:59.240Z,0.63
2022-08-16T16:25:26.960Z,0.70
2022-08-16T16:27:55.961Z,0.63
2022-08-16T16:30:38.039Z,0.70
2022-08-16T16:33:21.074Z,1.10
2022-08-16T16:35:56.629Z,0.30
2022-08-16T16:38:31.235Z,0.70
2022-08-16T16:40:59.415Z,1.85
2022-08-16T16:43:31.610Z,3.10
2022-08-16T16:46:01.744Z,1.20
2022-08-16T16:48:34.955Z,1.27
2022-08-16T16:51:09.395Z,2.25
2022-08-16T16:53:40.906Z,1.58
2022-08-16T16:56:10.349Z,3.42
2022-08-16T16:58:56.266Z,3.50
2022-08-16T17:01:41.532Z,1.40
2022-08-16T17:04:13.184Z,0.90
2022-08-16T17:06:53.490Z,2.65
2022-08-16T17:09:24.833Z,5.35
2022-08-16T17:11:55.392Z,1.98
2022-08-16T17:14:32.041Z,1.33
2022-08-16T17:17:00.303Z,3.90
2022-08-16T17:19:31.536Z,3.25
2022-08-16T17:21:59.798Z,2.83
2022-08-16T17:24:39.418Z,10.20
2022-08-16T17:27:08.916Z,14.38
2022-08-16T17:32:48.215Z,3.28
2022-08-16T17:35:33.606Z,4.88
2022-08-16T17:38:04.807Z,5.75
2022-08-16T17:39:28.631Z,6.78
2022-08-16T17:40:46.058Z,3.83
2022-08-16T17:43:27.328Z,7.15
2022-08-16T17:45:54.718Z,6.32
2022-08-16T17:48:22.148Z,10.35
2022-08-16T17:50:49.460Z,9.48
2022-08-16T17:53:22.146Z,3.40
2022-08-16T17:55:50.476Z,3.88
2022-08-16T17:58:22.854Z,3.00
2022-08-16T18:00:52.354Z,5.90
2022-08-16T18:04:08.201Z,4.30
2022-08-16T18:06:12.107Z,2.65
2022-08-16T18:08:39.668Z,3.78
2022-08-16T18:11:07.918Z,4.32
2022-08-16T18:13:35.356Z,3.78
2022-08-16T18:16:03.413Z,2.72
2022-08-16T18:18:30.898Z,4.90
2022-08-16T18:21:16.726Z,4.63
2022-08-16T18:23:44.440Z,6.22
2022-08-16T18:26:11.789Z,17.23
2022-08-16T18:28:39.225Z,7.63
2022-08-16T18:31:09.036Z,5.07
2022-08-16T18:33:43.194Z,2.67
2022-08-16T18:36:21.253Z,2.85
2022-08-16T18:38:49.459Z,2.88
2022-08-16T18:41:16.950Z,3.75
2022-08-16T18:44:22.885Z,2.72
2022-08-16T18:46:31.687Z,2.58
2022-08-16T18:48:59.408Z,2.13
2022-08-16T18:51:26.929Z,1.63
2022-08-16T18:53:54.470Z,1.02
2022-08-16T18:56:22.992Z,1.20
2022-08-16T18:59:10.330Z,0.35
2022-08-16T19:01:37.798Z,2.05
2022-08-16T19:04:05.259Z,2.33
2022-08-16T19:06:52.778Z,0.82
2022-08-16T19:09:21.687Z,1.33
2022-08-16T19:11:49.343Z,0.43
2022-08-16T19:14:16.733Z,1.08
2022-08-16T19:16:44.320Z,0.52
2022-08-16T19:19:11.780Z,0.93
2022-08-16T19:21:40.307Z,0.20
2022-08-16T19:24:17.714Z,0.65
2022-08-16T19:26:45.697Z,0.55
2022-08-16T19:29:13.525Z,0.50
2022-08-16T19:31:40.943Z,0.73
2022-08-16T19:34:08.802Z,0.63
2022-08-16T19:36:37.441Z,1.05
2022-08-16T19:39:15.080Z,0.68
2022-08-16T19:41:44.423Z,0.60
2022-08-16T19:44:11.777Z,0.10
2022-08-16T19:46:43.419Z,0.68
2022-08-16T19:49:10.760Z,0.47
2022-08-16T19:51:43.937Z,1.02
2022-08-16T19:54:11.240Z,0.82
2022-08-16T19:56:38.653Z,0.25
2022-08-16T19:59:22.451Z,0.30
2022-08-16T20:01:53.359Z,0.28
2022-08-16T20:04:21.545Z,0.00
2022-08-16T20:06:49.030Z,1.05
2022-08-16T20:09:16.420Z,0.75
2022-08-16T20:11:46.475Z,0.20
2022-08-16T20:14:23.973Z,0.15
2022-08-16T20:17:00.781Z,0.15
2022-08-16T20:19:35.193Z,0.28
2022-08-16T20:22:10.097Z,0.52
2022-08-16T20:24:39.725Z,0.08
2022-08-16T20:27:10.646Z,0.08
2022-08-16T20:29:44.562Z,0.32
2022-08-16T20:32:19.699Z,1.50
2022-08-16T20:34:50.643Z,1.15
2022-08-16T20:37:18.147Z,0.80
2022-08-16T20:39:49.023Z,0.25
2022-08-16T20:42:18.500Z,0.17
2022-08-16T20:44:45.838Z,0.00
2022-08-16T20:47:13.218Z,0.75
2022-08-16T20:49:43.541Z,0.88
2022-08-16T20:52:12.340Z,0.00
2022-08-16T20:54:39.807Z,0.22
2022-08-16T20:57:07.189Z,0.40
2022-08-16T20:59:34.495Z,0.55
2022-08-16T21:02:01.847Z,0.43
2022-08-16T21:04:29.321Z,1.05
2022-08-16T21:06:58.371Z,0.38
2022-08-16T21:09:26.442Z,0.10
2022-08-16T21:11:54.285Z,0.43
2022-08-16T21:14:21.710Z,1.17
2022-08-16T21:16:49.349Z,0.30
2022-08-16T21:19:16.828Z,0.20
2022-08-16T21:21:44.150Z,0.30
2022-08-16T21:24:11.522Z,0.20
2022-08-16T21:26:39.231Z,0.47
2022-08-16T21:29:07.850Z,0.63
2022-08-16T21:31:41.535Z,0.45
2022-08-16T21:34:08.969Z,0.20
2022-08-16T21:36:36.767Z,0.32
2022-08-16T21:39:05.725Z,0.10
2022-08-16T21:41:33.327Z,0.30
2022-08-16T21:44:00.700Z,0.20
2022-08-16T21:46:28.029Z,0.47
2022-08-16T21:48:55.423Z,0.73
2022-08-16T21:51:23.148Z,0.63
2022-08-16T21:53:50.445Z,0.55
2022-08-16T21:56:17.765Z,0.20
2022-08-16T21:58:53.001Z,0.05
2022-08-16T22:01:24.503Z,0.30
2022-08-16T22:04:03.573Z,0.40
2022-08-16T22:06:40.783Z,1.25
2022-08-16T22:09:08.241Z,0.70
2022-08-16T22:11:35.918Z,0.35
2022-08-16T22:14:04.233Z,0.70
2022-08-16T22:16:32.778Z,0.00
2022-08-16T22:19:00.581Z,0.55
2022-08-16T22:21:27.956Z,0.43
2022-08-16T22:23:57.430Z,0.55
2022-08-16T22:26:30.941Z,0.57
2022-08-16T22:32:04.746Z,0.47
2022-08-16T22:34:32.392Z,0.20
2022-08-16T22:37:02.835Z,0.70
2022-08-16T22:39:30.298Z,0.60
2022-08-16T22:41:57.792Z,0.60
2022-08-16T22:44:26.058Z,0.22
2022-08-16T22:46:53.557Z,0.95
2022-08-16T22:49:22.047Z,0.30
2022-08-16T22:51:54.462Z,0.40
2022-08-16T22:54:34.348Z,1.08
2022-08-16T22:57:11.648Z,1.15
2022-08-16T22:59:39.280Z,0.55
2022-08-16T23:02:07.170Z,2.00
2022-08-16T23:04:34.653Z,0.95
2022-08-16T23:07:03.681Z,1.23
2022-08-16T23:12:04.584Z,0.32
2022-08-16T23:14:32.874Z,0.40
2022-08-16T23:17:01.275Z,0.15
2022-08-16T23:19:29.500Z,0.80
2022-08-16T23:21:58.083Z,0.65
2022-08-16T23:24:25.826Z,0.50
2022-08-16T23:26:53.182Z,0.25
2022-08-16T23:29:24.129Z,0.17
2022-08-16T23:31:58.283Z,0.65
2022-08-16T23:34:26.874Z,0.10
2022-08-16T23:36:54.382Z,0.25
2022-08-16T23:39:22.503Z,0.52
2022-08-16T23:41:49.816Z,0.20
2022-08-16T23:44:55.625Z,0.35
2022-08-16T23:47:05.944Z,0.20
2022-08-16T23:49:57.137Z,0.68
2022-08-16T23:52:42.293Z,0.28
2022-08-16T23:55:08.563Z,0.75
2022-08-16T23:57:35.973Z,0.45
